West Akron, Ohio
Current Conditions -  °F | °C
As of 6:54 AM on Thursday 29 Jan 2015 (Local Time) from KAKR Reporting Station
Broken Clouds Broken Clouds  
Wind Chill: 22°   Ceiling: 8500
Heat Index: 30°   Visibility: 10mi
Dew Point: 14°   Wind: 9mph
Humidity: 51%   Direction: 160°SSE
Pressure: 29.95"   Gusts: NA
Location:  41.0707°N, 81.5458°W
Report Text: KAKR 291154Z AUTO 16008KT 10SM BKN085 M01/M10 A2995 RMK AO2 SLP155 T10111100 11011 21044 56043 $
Loading
Personal Weather Stations






























Interactive Weather Map New forecast layout! Learn more

10-Day Weather Forecast

Advertisements
Track Severe Weather on mobile